logo

United by the hobby
of model aircraft flying

Promoting safe
radio model flying

Sharing the experience
of RC flying

Dedicated to the sport of model aviation

Meeting
Venue

Third Monday Each Month
Crown Point Civic Center
101 S East Street
Crown Point, IN 46307

Read More

email:
[javascript protected email address]

View our events calendar

2021

Weather Conditions

Elev 730 ft    41.19°N  87.16°W

51.1 °F
010°
3 m/h
Wind Variable Wind from North

Current Conditions

Pressure 30.04 in
Visibility 4 miles
Clouds Overcast
Dew Point 50.0 °F
Humidity 96 %
Rainfall T2.2 in
 
METAR KVPZ 220256Z AUTO 01003KT 4SM -RA BR BKN006 OVC011 11/10 A3004 RMK AO2 SLP174 P0003 60010 T01060100 53012

Forecast

INFORMATION PROVIDED BY THE INDIANA STATE FORECAST - NATIONAL WEATHER SERVICE
Sunrise & Sunset
October 22, 2021
4:3 AM

4:41 PM
High 61 | Low 44°F
October 23, 2021
4:3 AM

4:41 PM
High | Low °F
 

our gallery

View All